Time;durP1;ratioP1;P1;durP2;ratioP2;P2;SDS_P1;SDS_P2;PMS_P1;PMS_P2;Temp;Humidity;BMP_temperature;BMP_pressure;BME280_temperature;BME280_humidity;BME280_pressure;Samples;Min_cycle;Max_cycle;Signal;HPM_P1;HPM_P2
2021/03/24 00:00:27;;;;;;;43.65;23.10;;;;;;;11.08;80.27;101071.56;5014786;28;20153;-86
2021/03/24 00:02:54;;;;;;;41.13;22.65;;;;;;;10.99;80.91;101072.94;5014323;28;20029;-86
2021/03/24 00:05:22;;;;;;;42.38;21.90;;;;;;;11.33;78.87;101068.28;5020656;28;20064;-86
2021/03/24 00:07:47;;;;;;;42.70;21.30;;;;;;;11.23;78.73;101067.16;5017513;28;20124;-87
2021/03/24 00:10:14;;;;;;;36.80;21.73;;;;;;;11.26;79.13;101064.38;5016748;28;20089;-87
2021/03/24 00:12:40;;;;;;;38.40;21.20;;;;;;;11.28;78.95;101071.22;5021273;28;20030;-86
2021/03/24 00:15:10;;;;;;;35.75;21.13;;;;;;;11.36;78.28;101059.41;5021648;28;20097;-87
2021/03/24 00:17:35;;;;;;;35.75;20.65;;;;;;;11.38;78.02;101055.72;5012734;28;20030;-85
2021/03/24 00:20:02;;;;;;;36.05;20.92;;;;;;;11.35;77.75;101049.81;5010410;28;20037;-85
2021/03/24 00:22:27;;;;;;;38.83;20.25;;;;;;;11.45;77.87;101066.69;5013904;28;20109;-86
2021/03/24 00:24:53;;;;;;;37.55;20.15;;;;;;;11.50;77.58;101060.22;5013780;28;20036;-86
2021/03/24 00:27:18;;;;;;;34.55;19.25;;;;;;;11.47;77.78;101055.19;5010392;22;20493;-92
2021/03/24 00:29:44;;;;;;;35.58;20.00;;;;;;;11.30;78.53;101052.72;4994420;28;20034;-91
2021/03/24 00:32:09;;;;;;;34.95;19.83;;;;;;;11.42;77.90;101049.34;4993203;28;20053;-92
2021/03/24 00:34:35;;;;;;;36.25;19.70;;;;;;;11.54;77.21;101052.16;4993090;28;20034;-91
2021/03/24 00:37:01;;;;;;;34.13;20.25;;;;;;;11.45;77.42;101051.78;4993270;28;20022;-92
2021/03/24 00:39:26;;;;;;;37.28;20.58;;;;;;;11.63;76.65;101057.72;4994511;28;20026;-92
2021/03/24 00:41:52;;;;;;;34.95;19.27;;;;;;;11.84;75.15;101047.59;4993186;28;20035;-92
2021/03/24 00:44:17;;;;;;;44.15;20.55;;;;;;;11.83;75.41;101064.34;4992492;28;20168;-92
2021/03/24 00:46:43;;;;;;;39.47;20.08;;;;;;;11.67;75.73;101051.31;4993250;28;20018;-91
2021/03/24 00:49:08;;;;;;;27.27;17.30;;;;;;;11.62;76.00;101042.84;4994431;28;20031;-91
2021/03/24 00:51:34;;;;;;;34.00;19.98;;;;;;;11.54;76.54;101045.13;4994640;28;20034;-91
2021/03/24 00:53:59;;;;;;;41.40;19.80;;;;;;;11.55;76.27;101043.31;4993920;28;20035;-91
2021/03/24 00:56:24;;;;;;;36.67;18.20;;;;;;;11.72;75.40;101048.38;4994292;28;20026;-91
2021/03/24 00:58:50;;;;;;;32.35;18.92;;;;;;;11.59;76.44;101047.44;4994430;28;20032;-91
2021/03/24 01:01:15;;;;;;;34.92;18.98;;;;;;;11.61;75.80;101040.31;4992986;28;20096;-91
2021/03/24 01:03:41;;;;;;;36.85;19.90;;;;;;;11.68;75.33;101037.19;4994206;28;20380;-91
2021/03/24 01:06:06;;;;;;;38.17;20.63;;;;;;;11.49;76.74;101039.28;4994133;28;20494;-91
2021/03/24 01:08:32;;;;;;;35.53;20.27;;;;;;;11.48;76.71;101041.06;4994086;28;20027;-91
2021/03/24 01:11:00;;;;;;;38.28;20.42;;;;;;;11.48;76.21;101048.97;4992842;28;20042;-92
2021/03/24 01:13:26;;;;;;;36.28;21.17;;;;;;;11.29;78.21;101045.75;4994062;28;20093;-91
2021/03/24 01:15:52;;;;;;;33.67;19.92;;;;;;;11.45;77.14;101046.53;4992500;28;20030;-91
2021/03/24 01:18:20;;;;;;;41.75;20.50;;;;;;;11.27;77.66;101039.75;4993736;28;20026;-91
2021/03/24 01:20:46;;;;;;;37.90;18.95;;;;;;;11.46;77.07;101048.22;4994993;28;20042;-91
2021/03/24 01:23:13;;;;;;;31.02;19.67;;;;;;;11.57;76.86;101044.06;5012702;28;20526;-91
2021/03/24 01:25:38;;;;;;;38.67;19.92;;;;;;;11.30;76.52;101010.66;5040849;23;21089;-96
2021/03/24 01:28:06;;;;;;;35.25;18.85;;;;;;;11.58;76.10;101027.38;5038074;28;20010;-96
2021/03/24 01:30:33;;;;;;;34.83;20.17;;;;;;;11.52;76.60;101023.31;5038382;28;20037;-96
2021/03/24 01:32:59;;;;;;;43.97;20.98;;;;;;;11.50;75.67;101014.69;5036061;28;20051;-96
2021/03/24 01:35:25;;;;;;;39.40;20.13;;;;;;;11.46;76.94;101013.19;5025374;28;20022;-96
2021/03/24 01:37:51;;;;;;;40.70;20.65;;;;;;;11.44;76.57;101007.19;5027380;28;20026;-96
2021/03/24 01:40:34;;;;;;;29.52;18.77;;;;;;;11.31;77.25;100996.56;5025390;28;20017;-96
2021/03/24 01:43:03;;;;;;;32.80;19.38;;;;;;;11.30;77.28;101010.66;5032251;28;20030;-96
2021/03/24 01:45:28;;;;;;;36.60;19.60;;;;;;;11.50;76.62;101012.06;5033786;28;20029;-96
2021/03/24 01:47:57;;;;;;;32.67;18.83;;;;;;;11.56;76.49;101018.72;5033835;28;20030;-96
2021/03/24 01:50:32;;;;;;;37.22;19.27;;;;;;;11.26;77.04;100982.88;5028614;28;20026;-96
2021/03/24 01:52:57;;;;;;;39.80;19.80;;;;;;;11.32;76.45;100985.97;5023473;28;20085;-96
2021/03/24 01:55:24;;;;;;;32.42;19.80;;;;;;;11.16;78.00;100992.25;5019948;28;20056;-96
2021/03/24 01:57:50;;;;;;;36.03;22.13;;;;;;;11.03;78.33;100993.00;5019710;28;20026;-96
2021/03/24 02:00:17;;;;;;;39.85;21.50;;;;;;;10.81;80.35;100979.47;5017292;28;20210;-96
2021/03/24 02:02:42;;;;;;;40.30;21.35;;;;;;;10.62;81.07;100975.28;5015163;28;20109;-96
2021/03/24 02:05:08;;;;;;;41.53;20.75;;;;;;;10.81;81.14;100990.81;5015568;28;20029;-96
2021/03/24 02:08:03;;;;;;;40.95;20.33;;;;;;;10.93;80.74;100986.59;5014160;28;20026;-96
2021/03/24 02:10:36;;;;;;;34.83;19.00;;;;;;;10.90;80.90;100982.38;5011655;28;20029;-96
2021/03/24 02:13:21;;;;;;;44.00;19.17;;;;;;;11.09;79.26;100990.00;5014110;28;20030;-96
2021/03/24 02:15:55;;;;;;;38.95;20.02;;;;;;;11.17;79.84;100983.44;5014642;28;20125;-96
2021/03/24 02:18:23;;;;;;;43.85;20.27;;;;;;;11.04;79.79;100976.31;5019015;28;20018;-96
2021/03/24 02:21:08;;;;;;;32.08;19.73;;;;;;;11.15;79.93;100982.69;5019124;28;20084;-96
2021/03/24 02:23:50;;;;;;;41.78;21.02;;;;;;;11.01;80.28;100976.47;5017097;28;20022;-96
2021/03/24 02:26:21;;;;;;;42.70;21.92;;;;;;;11.09;80.67;100987.34;5018008;28;20057;-96
2021/03/24 02:28:50;;;;;;;34.58;19.05;;;;;;;11.00;81.40;100982.69;5016486;28;20018;-96
2021/03/24 02:31:19;;;;;;;33.72;18.20;;;;;;;10.86;82.02;100980.03;5015682;28;20076;-96
2021/03/24 02:33:47;;;;;;;39.65;20.35;;;;;;;11.21;81.15;100984.94;5015245;28;20392;-96
2021/03/24 02:36:17;;;;;;;46.40;20.83;;;;;;;11.26;80.10;100973.19;5015207;28;20040;-96
2021/03/24 02:38:45;;;;;;;40.35;19.20;;;;;;;11.39;79.60;100965.38;5014175;28;20484;-96
2021/03/24 02:41:12;;;;;;;42.85;20.75;;;;;;;11.30;79.11;100969.44;5014219;28;20053;-96
2021/03/24 02:43:40;;;;;;;33.85;19.00;;;;;;;11.29;79.96;100964.25;5014225;28;20107;-96
2021/03/24 02:46:10;;;;;;;40.65;20.52;;;;;;;11.39;79.13;100965.38;5015890;28;20029;-96
2021/03/24 02:48:39;;;;;;;40.05;19.15;;;;;;;11.58;78.77;100966.88;5016722;28;20022;-96
2021/03/24 02:51:10;;;;;;;37.63;20.35;;;;;;;11.42;78.73;100962.56;5015834;28;20093;-96
2021/03/24 02:53:38;;;;;;;37.78;20.10;;;;;;;11.50;78.98;100960.31;5016250;28;20026;-96
2021/03/24 02:56:06;;;;;;;37.10;18.88;;;;;;;11.68;77.73;100960.06;5015471;28;20041;-96
2021/03/24 02:58:32;;;;;;;38.67;19.95;;;;;;;11.58;78.08;100959.81;5016222;28;20060;-96
2021/03/24 03:00:59;;;;;;;35.63;20.73;;;;;;;11.48;78.47;100950.81;5016012;28;20045;-96
2021/03/24 03:03:36;;;;;;;43.63;18.38;;;;;;;11.55;78.60;100956.53;5013800;28;20018;-95
2021/03/24 03:06:06;;;;;;;35.78;18.92;;;;;;;11.51;78.89;100955.88;5013668;28;20018;-96
2021/03/24 03:08:41;;;;;;;34.05;17.77;;;;;;;11.34;79.52;100956.94;5014506;28;20551;-96
2021/03/24 03:11:36;;;;;;;39.38;20.42;;;;;;;11.31;80.37;100954.50;5014341;28;20517;-96
2021/03/24 03:14:17;;;;;;;38.42;19.58;;;;;;;11.42;79.53;100944.16;5014893;28;20365;-96
2021/03/24 03:16:42;;;;;;;35.00;19.45;;;;;;;11.38;79.44;100947.94;5014720;28;20022;-96
2021/03/24 03:19:26;;;;;;;38.10;20.77;;;;;;;11.28;80.98;100952.06;5016919;28;20076;-96
2021/03/24 03:21:55;;;;;;;41.10;19.77;;;;;;;11.36;80.46;100954.22;5021866;28;20022;-95
2021/03/24 03:24:23;;;;;;;42.85;20.83;;;;;;;11.44;79.95;100942.28;5028400;28;20079;-95
2021/03/24 03:26:53;;;;;;;52.55;22.83;;;;;;;11.40;79.89;100937.31;5020782;28;20041;-96
2021/03/24 03:29:20;;;;;;;40.47;21.85;;;;;;;11.58;79.20;100940.56;5018095;28;20079;-96
2021/03/24 03:31:49;;;;;;;39.08;22.25;;;;;;;11.66;77.91;100943.56;5015900;28;20026;-95
2021/03/24 03:34:18;;;;;;;49.72;23.38;;;;;;;11.64;78.46;100940.19;5015824;28;20490;-95
2021/03/24 03:36:47;;;;;;;37.55;19.48;;;;;;;11.80;77.87;100942.66;5015492;28;20037;-96
2021/03/24 03:39:17;;;;;;;38.15;20.58;;;;;;;11.74;78.24;100938.63;5016359;28;20029;-95
2021/03/24 03:41:44;;;;;;;42.20;20.27;;;;;;;11.88;77.40;100937.75;5015658;28;20540;-94
2021/03/24 03:44:11;;;;;;;39.80;21.67;;;;;;;11.85;77.51;100941.44;5015402;28;20032;-95
2021/03/24 03:46:45;;;;;;;40.40;22.45;;;;;;;11.97;76.23;100928.47;5015094;28;20584;-96
2021/03/24 03:49:11;;;;;;;39.45;21.65;;;;;;;12.06;76.92;100925.19;5016390;28;20030;-96
2021/03/24 03:51:44;;;;;;;40.42;21.08;;;;;;;11.79;77.27;100931.31;5016061;28;20040;-96
2021/03/24 03:54:17;;;;;;;44.63;22.58;;;;;;;11.77;78.12;100925.31;5015781;28;20029;-95
2021/03/24 03:57:07;;;;;;;39.97;22.08;;;;;;;11.78;78.36;100926.97;5015388;28;20416;-96
2021/03/24 03:59:42;;;;;;;39.08;20.80;;;;;;;11.75;78.27;100921.94;5015155;28;20377;-96
2021/03/24 04:02:13;;;;;;;39.08;22.42;;;;;;;11.82;77.62;100922.34;5015574;28;20050;-96
2021/03/24 04:04:49;;;;;;;44.63;21.63;;;;;;;11.73;78.12;100913.28;5015853;28;20468;-96
2021/03/24 04:07:23;;;;;;;40.60;21.25;;;;;;;11.74;78.14;100922.00;5015559;28;20034;-96
2021/03/24 04:09:48;;;;;;;38.80;19.95;;;;;;;11.87;78.05;100926.38;5015488;28;20026;-96
2021/03/24 04:12:16;;;;;;;38.92;21.63;;;;;;;11.85;77.21;100917.75;5015698;28;20026;-96
2021/03/24 04:14:43;;;;;;;41.67;21.10;;;;;;;11.70;78.54;100930.09;5015550;28;20026;-96
2021/03/24 04:17:15;;;;;;;40.80;21.33;;;;;;;11.78;78.16;100923.50;5014886;28;20484;-96
2021/03/24 04:19:46;;;;;;;36.53;20.83;;;;;;;11.73;78.23;100929.06;5015172;28;20087;-95
2021/03/24 04:22:16;;;;;;;42.22;20.17;;;;;;;11.80;78.06;100934.78;5014801;28;20022;-95
2021/03/24 04:24:47;;;;;;;35.72;20.90;;;;;;;11.87;77.43;100925.53;5014904;28;20053;-96
2021/03/24 04:27:15;;;;;;;41.97;20.05;;;;;;;11.82;77.92;100923.19;5015317;28;20552;-96
2021/03/24 04:29:47;;;;;;;42.97;21.65;;;;;;;11.74;78.38;100911.50;5014641;28;20188;-96
2021/03/24 05:21:47;;;;;;;31.23;19.00;;;;;;;12.12;77.31;100893.19;5116868;22;20057;-96
2021/03/24 05:24:23;;;;;;;28.90;17.48;;;;;;;11.82;77.63;100875.84;5052355;28;20038;-96
2021/03/24 05:27:07;;;;;;;34.97;16.63;;;;;;;11.96;76.95;100876.75;5052183;28;20028;-96
2021/03/24 05:29:48;;;;;;;32.35;16.58;;;;;;;11.96;77.34;100874.13;5116197;22;20068;-96
2021/03/24 05:32:20;;;;;;;27.65;17.02;;;;;;;11.95;77.41;100875.06;5031526;28;20040;-96
2021/03/24 05:34:51;;;;;;;26.50;17.13;;;;;;;11.84;77.87;100879.22;5024862;28;20022;-96
2021/03/24 05:37:18;;;;;;;30.40;17.00;;;;;;;11.93;77.78;100879.56;5020574;28;20079;-96
2021/03/24 05:39:48;;;;;;;32.53;17.70;;;;;;;11.92;77.84;100885.81;5020410;28;20061;-96
2021/03/24 05:42:40;;;;;;;34.03;18.20;;;;;;;12.10;78.09;100917.03;5021219;28;20022;-96
2021/03/24 05:45:17;;;;;;;28.48;15.82;;;;;;;11.97;77.46;100888.97;5020456;28;20074;-96
2021/03/24 05:48:03;;;;;;;41.90;18.45;;;;;;;12.10;78.18;100909.13;5014074;28;20492;-96
2021/03/24 05:51:13;;;;;;;26.38;16.50;;;;;;;12.13;77.89;100909.88;5015020;28;20072;-96
2021/03/24 05:54:10;;;;;;;30.55;16.45;;;;;;;12.20;77.56;100911.13;4989680;28;20128;-96
2021/03/24 05:57:21;;;;;;;30.65;16.58;;;;;;;12.22;76.49;100904.84;5015266;28;20060;-96
2021/03/24 06:00:15;;;;;;;29.05;16.92;;;;;;;12.22;77.03;100910.09;5015640;28;20034;-96
2021/03/24 06:02:58;;;;;;;29.58;15.55;;;;;;;12.10;77.12;100876.66;5015260;28;20026;-96
2021/03/24 06:05:42;;;;;;;24.58;15.13;;;;;;;12.36;76.57;100910.94;5018157;28;20032;-96
2021/03/24 06:08:22;;;;;;;29.50;16.25;;;;;;;12.04;77.86;100911.31;5019625;28;20022;-96
2021/03/24 06:11:36;;;;;;;31.23;17.45;;;;;;;11.79;78.07;100881.31;5021077;28;20026;-96
2021/03/24 06:14:10;;;;;;;33.33;16.17;;;;;;;12.05;78.03;100913.00;4925466;29;20028;-96
2021/03/24 06:16:53;;;;;;;32.90;16.38;;;;;;;11.88;78.99;100925.44;4987733;28;20034;-96
2021/03/24 06:19:41;;;;;;;30.23;16.13;;;;;;;11.92;79.01;100925.28;5013707;28;20036;-95
2021/03/24 06:22:25;;;;;;;30.33;15.68;;;;;;;11.99;78.58;100927.41;5012765;28;20033;-95
2021/03/24 06:24:58;;;;;;;32.65;15.23;;;;;;;12.18;77.58;100924.38;5012306;28;20022;-95
2021/03/24 07:27:21;;;;;;;32.33;12.40;;;;;;;12.42;78.72;100953.53;5575702;22;20045;-96
2021/03/24 07:30:11;;;;;;;24.60;13.40;;;;;;;12.36;79.15;100953.06;5035639;28;20061;-96
2021/03/24 07:32:47;;;;;;;24.27;10.75;;;;;;;12.45;79.05;100955.94;5033902;28;20040;-96
2021/03/24 07:35:50;;;;;;;31.70;12.55;;;;;;;12.64;77.90;100962.63;5029507;28;20037;-96
2021/03/24 07:38:46;;;;;;;15.32;10.65;;;;;;;12.53;77.40;100926.44;5004230;28;20034;-96
2021/03/24 07:44:17;;;;;;;40.00;12.38;;;;;;;12.56;78.85;100965.75;5120670;22;20473;-94
2021/03/24 07:47:08;;;;;;;28.58;12.00;;;;;;;12.40;77.95;100929.09;5033560;28;20116;-94
2021/03/24 07:49:39;;;;;;;25.33;10.30;;;;;;;12.83;77.03;100956.91;5012777;28;20516;-95
2021/03/24 07:52:32;;;;;;;20.13;11.13;;;;;;;12.84;76.64;100958.63;4998486;28;20018;-94
2021/03/24 07:55:01;;;;;;;22.17;11.07;;;;;;;12.82;76.77;100958.72;5010454;28;20380;-95
2021/03/24 07:57:54;;;;;;;18.90;10.35;;;;;;;12.85;76.39;100957.66;5014456;28;20029;-95
2021/03/24 08:00:32;;;;;;;28.48;13.55;;;;;;;12.78;76.82;100961.69;5003440;28;20085;-95
2021/03/24 08:03:04;;;;;;;29.73;11.43;;;;;;;12.85;76.38;100961.13;5012206;28;20041;-93
2021/03/24 08:05:45;;;;;;;25.55;11.40;;;;;;;12.72;76.82;100959.44;5009220;28;20029;-95
2021/03/24 08:08:30;;;;;;;22.98;10.93;;;;;;;12.87;76.80;100958.41;5024258;28;20105;-94
2021/03/24 08:11:05;;;;;;;18.38;10.20;;;;;;;13.01;76.04;100965.34;5019414;28;20025;-96
2021/03/24 08:13:37;;;;;;;25.55;11.68;;;;;;;12.84;76.50;100963.88;5027127;28;20029;-96
2021/03/24 08:16:30;;;;;;;27.65;10.23;;;;;;;12.84;76.55;100961.25;5023537;28;20030;-96
2021/03/24 08:19:23;;;;;;;19.45;9.40;;;;;;;12.77;77.36;100966.09;5021865;28;20387;-95
2021/03/24 08:22:16;;;;;;;30.83;11.13;;;;;;;12.78;76.90;100959.03;5022780;28;20064;-95
2021/03/24 08:24:57;;;;;;;27.23;10.32;;;;;;;12.91;76.91;100962.50;5003995;28;20518;-94
2021/03/24 08:27:30;;;;;;;26.52;10.75;;;;;;;13.07;75.46;100967.56;5020167;22;20042;-85
2021/03/24 08:30:15;;;;;;;17.80;9.63;;;;;;;13.06;75.94;100964.09;5031044;28;20087;-86
2021/03/24 08:32:55;;;;;;;19.60;9.25;;;;;;;13.10;75.80;100970.81;5008192;28;20037;-86
2021/03/24 08:35:38;;;;;;;20.48;8.63;;;;;;;13.15;75.07;100978.44;5014022;28;20193;-87
2021/03/24 08:38:21;;;;;;;20.98;9.25;;;;;;;13.22;74.24;100978.84;5001947;28;20021;-85
2021/03/24 08:40:52;;;;;;;20.52;9.20;;;;;;;13.20;73.53;100980.75;4994661;28;20394;-86
2021/03/24 08:43:32;;;;;;;22.58;7.07;;;;;;;13.09;74.51;100992.88;5006905;28;20089;-86
2021/03/24 08:46:14;;;;;;;19.40;8.10;;;;;;;13.09;74.32;100984.97;5014728;28;20076;-85
2021/03/24 08:48:53;;;;;;;19.70;7.97;;;;;;;13.13;73.83;100980.34;5014880;28;20391;-86
2021/03/24 08:51:28;;;;;;;21.15;8.85;;;;;;;13.26;73.36;100990.84;5007674;28;20037;-85
2021/03/24 08:54:21;;;;;;;16.20;7.95;;;;;;;13.42;72.76;100986.22;5007602;28;20439;-86
2021/03/24 08:56:58;;;;;;;12.73;7.20;;;;;;;13.52;72.55;100991.69;5015267;28;20372;-86
2021/03/24 08:59:31;;;;;;;23.77;8.70;;;;;;;13.56;72.29;100992.31;5023565;28;20033;-86
2021/03/24 09:02:33;;;;;;;15.35;8.00;;;;;;;13.61;72.59;100990.19;5034520;28;20030;-86
2021/03/24 09:05:46;;;;;;;18.55;8.40;;;;;;;13.71;72.58;100991.22;5017738;28;20025;-86
2021/03/24 09:08:29;;;;;;;17.40;9.40;;;;;;;13.89;70.77;100992.53;4978905;28;20033;-86
2021/03/24 09:11:13;;;;;;;19.20;8.23;;;;;;;13.92;70.46;100995.91;5011203;28;20030;-85
2021/03/24 09:13:53;;;;;;;18.10;7.85;;;;;;;13.82;71.63;100982.50;4994703;28;20030;-86
2021/03/24 09:16:38;;;;;;;16.90;9.15;;;;;;;13.78;71.19;100981.88;5002608;28;20030;-86
2021/03/24 09:19:48;;;;;;;20.95;9.68;;;;;;;13.63;71.67;100988.28;5007126;28;20105;-85
2021/03/24 09:22:30;;;;;;;22.13;10.48;;;;;;;13.72;71.16;100986.78;4988871;28;20176;-85
2021/03/24 09:25:12;;;;;;;22.77;10.07;;;;;;;13.45;72.32;100985.19;4999969;28;20030;-85
2021/03/24 09:28:07;;;;;;;24.08;10.02;;;;;;;13.75;70.49;100984.78;5042536;22;20053;-90
2021/03/24 09:30:35;;;;;;;19.30;8.38;;;;;;;14.11;69.07;100980.41;5044145;28;20030;-90
2021/03/24 09:33:12;;;;;;;21.80;9.32;;;;;;;13.78;70.79;100986.34;5037230;28;20028;-90
2021/03/24 09:36:19;;;;;;;21.85;8.10;;;;;;;13.79;70.20;100988.88;5036670;28;20128;-89
2021/03/24 09:38:47;;;;;;;19.73;8.35;;;;;;;13.71;71.13;100969.28;4980178;28;20506;-89
2021/03/24 09:41:25;;;;;;;14.80;7.50;;;;;;;13.86;70.65;100981.34;5012713;28;20083;-90
2021/03/24 09:43:55;;;;;;;17.48;7.95;;;;;;;13.76;70.80;100978.53;5022319;28;20103;-89
2021/03/24 09:46:41;;;;;;;16.58;6.95;;;;;;;14.13;69.22;100981.13;5032525;28;20443;-90
2021/03/24 09:49:21;;;;;;;23.73;9.07;;;;;;;14.16;68.81;100980.03;5015377;28;20054;-89
2021/03/24 09:52:37;;;;;;;15.15;7.38;;;;;;;14.01;69.54;100987.31;5013142;28;20458;-89
2021/03/24 09:55:03;;;;;;;18.52;7.30;;;;;;;13.93;69.90;100993.16;4908473;29;20506;-90
2021/03/24 09:57:48;;;;;;;20.85;7.03;;;;;;;13.86;70.65;100979.56;4911685;29;20039;-90
2021/03/24 10:00:18;;;;;;;15.90;7.15;;;;;;;13.58;72.30;100993.03;4983938;28;20045;-89
2021/03/24 10:02:55;;;;;;;13.70;6.82;;;;;;;13.62;71.49;100983.97;5017869;28;20048;-88
2021/03/24 10:05:36;;;;;;;15.65;6.38;;;;;;;13.29;72.97;100990.66;5049469;28;20483;-89
2021/03/24 10:08:09;;;;;;;15.05;5.80;;;;;;;13.01;74.78;101007.53;5014316;28;20026;-90
2021/03/24 10:10:36;;;;;;;13.80;5.80;;;;;;;12.86;75.72;101004.16;5026647;28;20484;-87
2021/03/24 10:13:26;;;;;;;11.90;4.60;;;;;;;12.78;76.93;101006.47;5022080;28;20399;-89
2021/03/24 10:15:59;;;;;;;8.98;3.92;;;;;;;12.85;76.98;101010.38;5023977;28;20410;-90
2021/03/24 10:18:53;;;;;;;5.25;3.08;;;;;;;12.79;76.42;101006.34;5014479;28;20029;-89
2021/03/24 10:21:28;;;;;;;3.33;2.38;;;;;;;12.86;77.92;101009.44;5028358;28;20034;-90
2021/03/24 10:23:59;;;;;;;8.32;2.63;;;;;;;12.95;77.39;101008.78;5025465;28;20022;-88
2021/03/24 10:26:30;;;;;;;5.87;2.80;;;;;;;13.32;75.67;101008.09;4998610;28;20025;-90
2021/03/24 10:29:11;;;;;;;7.55;1.80;;;;;;;13.11;76.18;101008.56;5018108;28;20849;-89
2021/03/24 10:31:39;;;;;;;8.02;2.10;;;;;;;13.47;75.12;101015.75;5032867;28;20468;-88
2021/03/24 10:34:28;;;;;;;6.28;1.48;;;;;;;13.26;75.44;101014.59;5029846;28;20018;-89
2021/03/24 10:37:20;;;;;;;5.65;1.25;;;;;;;13.10;73.55;101012.16;5027082;28;20037;-90
2021/03/24 10:39:56;;;;;;;5.20;1.20;;;;;;;13.19;73.98;101001.00;4971584;28;20037;-90
2021/03/24 10:42:46;;;;;;;6.18;0.90;;;;;;;13.83;70.63;101002.69;5002960;28;20032;-90
2021/03/24 10:45:20;;;;;;;9.02;1.45;;;;;;;14.08;70.50;101004.41;5033307;28;20052;-90
2021/03/24 10:48:05;;;;;;;10.52;1.52;;;;;;;14.41;68.87;100994.91;5031954;28;20025;-91
2021/03/24 10:50:55;;;;;;;5.20;1.17;;;;;;;14.80;66.60;100990.25;5032236;28;20028;-91
2021/03/24 10:53:26;;;;;;;7.20;1.17;;;;;;;14.89;66.59;100994.84;5026641;28;20022;-90
2021/03/24 10:56:03;;;;;;;7.68;0.98;;;;;;;14.33;67.54;101002.59;5017571;28;20056;-89
2021/03/24 10:58:44;;;;;;;3.40;1.08;;;;;;;14.67;64.92;100996.50;5013932;28;20556;-88
2021/03/24 11:01:22;;;;;;;10.13;2.13;;;;;;;14.38;65.25;100992.53;4997299;28;20049;-89
2021/03/24 11:03:47;;;;;;;9.32;1.30;;;;;;;15.30;62.18;100997.88;5000968;28;20565;-91
2021/03/24 11:06:18;;;;;;;6.00;1.08;;;;;;;15.26;59.76;100998.13;5002805;28;20029;-89
2021/03/24 11:08:54;;;;;;;5.32;1.08;;;;;;;14.80;55.68;100993.75;5012744;28;20026;-90
2021/03/24 11:11:25;;;;;;;5.90;1.00;;;;;;;15.28;54.87;100990.06;5034365;28;20029;-90
2021/03/24 11:13:58;;;;;;;7.95;1.58;;;;;;;15.08;54.70;100981.03;5022400;28;20519;-89
2021/03/24 11:16:35;;;;;;;7.00;1.05;;;;;;;15.54;52.10;100989.81;5024789;28;20021;-89
2021/03/24 11:19:19;;;;;;;11.40;1.20;;;;;;;15.63;53.02;101000.50;5004466;28;20034;-89
2021/03/24 11:22:25;;;;;;;4.07;0.80;;;;;;;16.00;52.00;101002.03;5022275;28;20033;-89
2021/03/24 11:24:56;;;;;;;8.63;1.50;;;;;;;16.02;52.82;101000.09;5012728;28;20488;-89
2021/03/24 11:27:21;;;;;;;6.95;1.40;;;;;;;15.54;52.96;100995.09;5018673;28;20032;-90
2021/03/24 11:29:52;;;;;;;8.70;1.50;;;;;;;15.58;52.28;100999.19;5008334;28;20395;-89
2021/03/24 11:32:21;;;;;;;8.05;1.33;;;;;;;16.41;50.71;100995.97;5029818;28;20487;-89
2021/03/24 11:34:52;;;;;;;7.97;1.40;;;;;;;16.45;50.62;100996.56;5011428;28;20095;-89
2021/03/24 11:37:47;;;;;;;9.02;1.60;;;;;;;17.27;48.87;100993.16;5023913;28;20057;-89
2021/03/24 11:40:27;;;;;;;7.15;1.60;;;;;;;19.04;46.57;100993.16;5031741;28;20056;-89
2021/03/24 11:42:59;;;;;;;9.55;1.60;;;;;;;20.14;42.83;100989.66;5028640;28;20116;-89
2021/03/24 11:45:28;;;;;;;5.40;1.50;;;;;;;20.35;40.67;100991.16;5011619;28;20040;-90
2021/03/24 11:48:28;;;;;;;4.72;1.25;;;;;;;21.62;39.85;100985.25;5019097;28;20052;-91
2021/03/24 11:51:05;;;;;;;9.25;1.80;;;;;;;21.99;39.12;100992.03;5015495;28;20025;-92
2021/03/24 11:53:58;;;;;;;6.30;1.83;;;;;;;22.06;37.28;100992.22;5036209;28;20030;-92
2021/03/24 11:57:04;;;;;;;8.15;2.03;;;;;;;21.93;37.64;100982.84;5036834;28;20025;-92
2021/03/24 11:59:42;;;;;;;6.93;1.27;;;;;;;22.85;35.78;100979.16;5035771;28;20083;-91
2021/03/24 12:02:15;;;;;;;7.38;1.52;;;;;;;23.14;34.47;100973.25;5020107;28;20030;-93
2021/03/24 12:05:04;;;;;;;8.80;1.55;;;;;;;23.56;34.46;100970.25;5019579;28;20036;-92
2021/03/24 12:07:42;;;;;;;8.13;2.33;;;;;;;23.34;34.84;100977.22;5036410;28;20057;-93
2021/03/24 12:10:10;;;;;;;7.68;1.52;;;;;;;23.50;33.29;100975.44;5038295;28;20039;-93
2021/03/24 12:12:36;;;;;;;2.72;1.00;;;;;;;22.18;33.95;100970.34;5038822;28;20029;-93
2021/03/24 12:15:17;;;;;;;7.30;2.28;;;;;;;22.77;35.30;100974.69;5036855;28;20025;-93
2021/03/24 12:17:42;;;;;;;6.18;1.30;;;;;;;22.02;33.64;100964.13;5031970;28;20060;-93
2021/03/24 12:20:14;;;;;;;6.43;1.92;;;;;;;21.06;35.01;100970.66;5000062;28;20030;-93
2021/03/24 12:22:50;;;;;;;6.13;1.08;;;;;;;21.44;35.50;100971.19;5000196;28;20054;-92
2021/03/24 12:25:19;;;;;;;3.90;1.25;;;;;;;21.36;35.28;100964.78;5016639;28;20029;-93
2021/03/24 12:27:51;;;;;;;4.88;1.10;;;;;;;22.89;34.41;100973.31;5043353;22;20128;-91
2021/03/24 12:30:46;;;;;;;6.05;1.25;;;;;;;23.08;32.93;100982.00;5036744;28;20029;-93
2021/03/24 12:33:14;;;;;;;5.88;1.00;;;;;;;23.05;32.63;100974.31;5018788;28;20080;-92
2021/03/24 12:35:41;;;;;;;6.15;1.63;;;;;;;22.99;32.83;100956.22;5025201;28;20033;-91
2021/03/24 12:38:12;;;;;;;8.93;1.60;;;;;;;22.71;31.55;100965.50;5018090;28;20424;-90
2021/03/24 12:40:57;;;;;;;7.38;1.50;;;;;;;21.37;34.17;100971.81;5016909;28;20049;-91
2021/03/24 12:43:36;;;;;;;5.57;0.95;;;;;;;21.11;32.66;100973.69;5017602;28;20480;-91
2021/03/24 12:46:15;;;;;;;9.15;1.77;;;;;;;21.56;32.89;100973.41;5016160;28;20026;-93
2021/03/24 12:48:55;;;;;;;6.53;1.55;;;;;;;22.26;32.48;100968.72;4995243;28;20109;-92
2021/03/24 12:51:36;;;;;;;7.13;1.55;;;;;;;21.93;32.21;100976.66;4995226;28;20551;-92
2021/03/24 12:54:07;;;;;;;3.65;0.90;;;;;;;22.76;31.60;100967.66;5008492;28;20072;-93
2021/03/24 12:59:07;;;;;;;6.25;1.25;;;;;;;21.46;32.55;100963.84;5012180;28;20304;-92
2021/03/24 13:04:43;;;;;;;3.78;1.15;;;;;;;21.80;33.69;100955.78;5106958;22;20049;-95
2021/03/24 13:07:27;;;;;;;9.15;1.33;;;;;;;23.16;27.64;100948.00;5037060;28;20025;-94
2021/03/24 13:10:15;;;;;;;9.75;1.45;;;;;;;21.77;31.24;100934.72;5035973;28;20036;-94
2021/03/24 13:12:58;;;;;;;9.05;1.63;;;;;;;21.90;30.79;100944.91;5054179;28;20029;-94
2021/03/24 13:15:31;;;;;;;3.97;0.45;;;;;;;22.30;24.10;100943.31;5053594;28;20025;-94
2021/03/24 13:18:12;;;;;;;4.32;0.68;;;;;;;22.44;26.26;100947.13;5035706;28;20033;-94
2021/03/24 13:21:08;;;;;;;3.08;0.90;;;;;;;22.77;24.45;100942.56;5055044;28;20040;-95
2021/03/24 13:24:08;;;;;;;6.65;0.93;;;;;;;22.33;25.76;100940.28;5038323;28;20025;-94
2021/03/24 13:26:36;;;;;;;5.70;1.60;;;;;;;22.85;27.45;100942.53;5064940;22;20037;-93
2021/03/24 13:29:15;;;;;;;4.28;1.50;;;;;;;23.11;26.40;100930.78;5035892;28;20390;-93
2021/03/24 13:31:47;;;;;;;3.70;1.17;;;;;;;22.51;26.68;100932.06;5036174;28;20030;-91
2021/03/24 13:34:50;;;;;;;10.77;1.83;;;;;;;22.65;28.96;100933.19;5035030;28;20025;-92
2021/03/24 13:37:24;;;;;;;4.32;1.63;;;;;;;23.00;28.32;100931.09;5026906;28;20036;-94
2021/03/24 13:40:03;;;;;;;4.07;1.73;;;;;;;23.34;28.79;100933.50;5043824;28;20095;-93
2021/03/24 13:42:34;;;;;;;5.63;1.65;;;;;;;21.24;29.80;100914.50;5036225;28;20025;-93
2021/03/24 13:45:07;;;;;;;5.75;1.58;;;;;;;21.29;31.05;100925.53;5017381;28;20052;-92
2021/03/24 13:47:45;;;;;;;5.43;1.52;;;;;;;19.92;32.58;100924.28;5017027;28;20029;-92
2021/03/24 13:50:30;;;;;;;5.47;1.40;;;;;;;20.45;29.19;100927.88;5035078;28;20104;-93
2021/03/24 13:53:09;;;;;;;9.75;1.40;;;;;;;19.83;30.79;100916.38;5036991;28;20025;-93